sensor_id;sensor_type;location;lat;lon;timestamp;P1;durP1;ratioP1;P2;durP2;ratioP2
67749;SDS011;54550;48.838;8.828;2023-04-25T00:01:10;6.82;;;3.83;;
67749;SDS011;54550;48.838;8.828;2023-04-25T00:03:37;4.50;;;3.70;;
67749;SDS011;54550;48.838;8.828;2023-04-25T00:06:04;9.27;;;4.10;;
67749;SDS011;54550;48.838;8.828;2023-04-25T00:08:30;5.65;;;3.75;;
67749;SDS011;54550;48.838;8.828;2023-04-25T00:10:56;8.57;;;4.20;;
67749;SDS011;54550;48.838;8.828;2023-04-25T00:13:22;6.25;;;4.00;;
67749;SDS011;54550;48.838;8.828;2023-04-25T00:15:48;11.77;;;5.70;;
67749;SDS011;54550;48.838;8.828;2023-04-25T00:18:14;15.57;;;5.07;;
67749;SDS011;54550;48.838;8.828;2023-04-25T00:20:40;10.88;;;5.25;;
67749;SDS011;54550;48.838;8.828;2023-04-25T00:23:09;8.88;;;5.10;;
67749;SDS011;54550;48.838;8.828;2023-04-25T00:25:35;7.50;;;5.30;;
67749;SDS011;54550;48.838;8.828;2023-04-25T00:28:00;9.83;;;5.63;;
67749;SDS011;54550;48.838;8.828;2023-04-25T00:30:26;6.00;;;5.40;;
67749;SDS011;54550;48.838;8.828;2023-04-25T00:32:51;15.30;;;7.00;;
67749;SDS011;54550;48.838;8.828;2023-04-25T00:35:18;10.20;;;5.97;;
67749;SDS011;54550;48.838;8.828;2023-04-25T00:37:43;8.90;;;5.37;;
67749;SDS011;54550;48.838;8.828;2023-04-25T00:40:09;6.30;;;5.32;;
67749;SDS011;54550;48.838;8.828;2023-04-25T00:42:35;13.05;;;6.47;;
67749;SDS011;54550;48.838;8.828;2023-04-25T00:45:02;12.40;;;7.10;;
67749;SDS011;54550;48.838;8.828;2023-04-25T00:47:30;16.52;;;10.18;;
67749;SDS011;54550;48.838;8.828;2023-04-25T00:49:57;11.75;;;10.15;;
67749;SDS011;54550;48.838;8.828;2023-04-25T00:52:23;8.77;;;5.60;;
67749;SDS011;54550;48.838;8.828;2023-04-25T00:54:49;7.57;;;5.50;;
67749;SDS011;54550;48.838;8.828;2023-04-25T00:57:15;8.30;;;6.27;;
67749;SDS011;54550;48.838;8.828;2023-04-25T00:59:41;9.83;;;5.30;;
67749;SDS011;54550;48.838;8.828;2023-04-25T01:02:09;10.23;;;6.15;;
67749;SDS011;54550;48.838;8.828;2023-04-25T01:04:35;8.93;;;4.23;;
67749;SDS011;54550;48.838;8.828;2023-04-25T01:07:01;7.63;;;5.10;;
67749;SDS011;54550;48.838;8.828;2023-04-25T01:09:27;5.32;;;4.05;;
67749;SDS011;54550;48.838;8.828;2023-04-25T01:11:56;7.85;;;3.78;;
67749;SDS011;54550;48.838;8.828;2023-04-25T01:14:22;7.43;;;4.80;;
67749;SDS011;54550;48.838;8.828;2023-04-25T01:16:48;4.70;;;3.77;;
67749;SDS011;54550;48.838;8.828;2023-04-25T01:19:14;4.33;;;3.93;;
67749;SDS011;54550;48.838;8.828;2023-04-25T01:21:43;5.40;;;4.00;;
67749;SDS011;54550;48.838;8.828;2023-04-25T01:24:09;4.00;;;3.35;;
67749;SDS011;54550;48.838;8.828;2023-04-25T01:26:35;8.37;;;3.20;;
67749;SDS011;54550;48.838;8.828;2023-04-25T01:29:01;6.47;;;3.75;;
67749;SDS011;54550;48.838;8.828;2023-04-25T01:31:28;4.85;;;3.65;;
67749;SDS011;54550;48.838;8.828;2023-04-25T01:33:54;7.07;;;3.70;;
67749;SDS011;54550;48.838;8.828;2023-04-25T01:36:20;4.20;;;3.80;;
67749;SDS011;54550;48.838;8.828;2023-04-25T01:38:47;9.38;;;3.53;;
67749;SDS011;54550;48.838;8.828;2023-04-25T01:41:13;6.63;;;4.37;;
67749;SDS011;54550;48.838;8.828;2023-04-25T01:43:39;4.60;;;3.78;;
67749;SDS011;54550;48.838;8.828;2023-04-25T01:46:05;7.13;;;4.97;;
67749;SDS011;54550;48.838;8.828;2023-04-25T01:48:31;10.10;;;4.70;;
67749;SDS011;54550;48.838;8.828;2023-04-25T01:50:56;6.43;;;4.20;;
67749;SDS011;54550;48.838;8.828;2023-04-25T01:53:22;4.57;;;3.33;;
67749;SDS011;54550;48.838;8.828;2023-04-25T01:55:49;3.22;;;2.92;;
67749;SDS011;54550;48.838;8.828;2023-04-25T01:58:14;8.30;;;3.33;;
67749;SDS011;54550;48.838;8.828;2023-04-25T02:00:40;3.97;;;3.30;;
67749;SDS011;54550;48.838;8.828;2023-04-25T02:03:06;5.47;;;4.20;;
67749;SDS011;54550;48.838;8.828;2023-04-25T02:05:37;7.03;;;5.18;;
67749;SDS011;54550;48.838;8.828;2023-04-25T02:08:04;4.05;;;3.75;;
67749;SDS011;54550;48.838;8.828;2023-04-25T02:10:30;5.30;;;4.25;;
67749;SDS011;54550;48.838;8.828;2023-04-25T02:12:56;5.17;;;4.17;;
67749;SDS011;54550;48.838;8.828;2023-04-25T02:15:22;3.53;;;3.22;;
67749;SDS011;54550;48.838;8.828;2023-04-25T02:17:48;8.33;;;4.73;;
67749;SDS011;54550;48.838;8.828;2023-04-25T02:20:14;11.17;;;4.67;;
67749;SDS011;54550;48.838;8.828;2023-04-25T02:22:40;6.43;;;5.50;;
67749;SDS011;54550;48.838;8.828;2023-04-25T02:25:07;6.82;;;5.32;;
67749;SDS011;54550;48.838;8.828;2023-04-25T02:27:34;8.23;;;5.10;;
67749;SDS011;54550;48.838;8.828;2023-04-25T02:29:59;16.30;;;5.90;;
67749;SDS011;54550;48.838;8.828;2023-04-25T02:32:25;11.50;;;5.70;;
67749;SDS011;54550;48.838;8.828;2023-04-25T02:34:52;10.00;;;5.43;;
67749;SDS011;54550;48.838;8.828;2023-04-25T02:37:18;7.13;;;5.53;;
67749;SDS011;54550;48.838;8.828;2023-04-25T02:39:43;10.80;;;6.43;;
67749;SDS011;54550;48.838;8.828;2023-04-25T02:42:09;13.73;;;6.40;;
67749;SDS011;54550;48.838;8.828;2023-04-25T02:44:35;10.20;;;8.40;;
67749;SDS011;54550;48.838;8.828;2023-04-25T02:47:00;13.77;;;7.73;;
67749;SDS011;54550;48.838;8.828;2023-04-25T02:49:26;10.37;;;7.40;;
67749;SDS011;54550;48.838;8.828;2023-04-25T02:51:51;16.30;;;9.87;;
67749;SDS011;54550;48.838;8.828;2023-04-25T02:54:17;21.57;;;9.20;;
67749;SDS011;54550;48.838;8.828;2023-04-25T02:56:42;9.40;;;7.27;;
67749;SDS011;54550;48.838;8.828;2023-04-25T02:59:08;10.17;;;8.00;;
67749;SDS011;54550;48.838;8.828;2023-04-25T03:01:33;13.90;;;8.10;;
67749;SDS011;54550;48.838;8.828;2023-04-25T03:03:59;14.60;;;7.70;;
67749;SDS011;54550;48.838;8.828;2023-04-25T03:06:24;12.87;;;8.83;;
67749;SDS011;54550;48.838;8.828;2023-04-25T03:08:50;29.70;;;9.30;;
67749;SDS011;54550;48.838;8.828;2023-04-25T03:11:15;23.10;;;10.03;;
67749;SDS011;54550;48.838;8.828;2023-04-25T03:13:41;13.80;;;8.83;;
67749;SDS011;54550;48.838;8.828;2023-04-25T03:16:07;12.33;;;9.70;;
67749;SDS011;54550;48.838;8.828;2023-04-25T03:18:32;14.57;;;9.50;;
67749;SDS011;54550;48.838;8.828;2023-04-25T03:20:58;15.63;;;8.97;;
67749;SDS011;54550;48.838;8.828;2023-04-25T03:23:23;13.60;;;8.10;;
67749;SDS011;54550;48.838;8.828;2023-04-25T03:25:49;17.13;;;10.00;;
67749;SDS011;54550;48.838;8.828;2023-04-25T03:28:15;14.17;;;8.57;;
67749;SDS011;54550;48.838;8.828;2023-04-25T03:30:40;14.97;;;9.80;;
67749;SDS011;54550;48.838;8.828;2023-04-25T03:33:06;17.90;;;11.13;;
67749;SDS011;54550;48.838;8.828;2023-04-25T03:35:31;38.37;;;13.53;;
67749;SDS011;54550;48.838;8.828;2023-04-25T03:37:57;20.17;;;13.33;;
67749;SDS011;54550;48.838;8.828;2023-04-25T03:40:22;25.67;;;16.67;;
67749;SDS011;54550;48.838;8.828;2023-04-25T03:42:48;19.23;;;12.70;;
67749;SDS011;54550;48.838;8.828;2023-04-25T03:45:14;16.37;;;9.73;;
67749;SDS011;54550;48.838;8.828;2023-04-25T03:47:39;29.57;;;9.60;;
67749;SDS011;54550;48.838;8.828;2023-04-25T03:50:05;14.30;;;10.13;;
67749;SDS011;54550;48.838;8.828;2023-04-25T03:52:31;15.57;;;9.60;;
67749;SDS011;54550;48.838;8.828;2023-04-25T03:54:56;12.30;;;9.10;;
67749;SDS011;54550;48.838;8.828;2023-04-25T03:57:22;12.27;;;10.17;;
67749;SDS011;54550;48.838;8.828;2023-04-25T03:59:47;15.63;;;9.73;;
67749;SDS011;54550;48.838;8.828;2023-04-25T04:02:13;14.43;;;10.00;;
67749;SDS011;54550;48.838;8.828;2023-04-25T04:04:39;13.20;;;9.57;;
67749;SDS011;54550;48.838;8.828;2023-04-25T04:07:04;14.23;;;10.50;;
67749;SDS011;54550;48.838;8.828;2023-04-25T04:09:30;19.67;;;9.67;;
67749;SDS011;54550;48.838;8.828;2023-04-25T04:11:55;21.37;;;9.90;;
67749;SDS011;54550;48.838;8.828;2023-04-25T04:14:21;14.87;;;9.73;;
67749;SDS011;54550;48.838;8.828;2023-04-25T04:16:46;11.57;;;8.77;;
67749;SDS011;54550;48.838;8.828;2023-04-25T04:19:12;12.80;;;7.93;;
67749;SDS011;54550;48.838;8.828;2023-04-25T04:21:38;13.40;;;8.20;;
67749;SDS011;54550;48.838;8.828;2023-04-25T04:24:03;12.90;;;9.43;;
67749;SDS011;54550;48.838;8.828;2023-04-25T04:26:30;20.90;;;9.35;;
67749;SDS011;54550;48.838;8.828;2023-04-25T04:28:57;17.00;;;9.07;;
67749;SDS011;54550;48.838;8.828;2023-04-25T04:31:24;18.58;;;8.27;;
67749;SDS011;54550;48.838;8.828;2023-04-25T04:33:49;14.47;;;8.23;;
67749;SDS011;54550;48.838;8.828;2023-04-25T04:36:15;10.80;;;8.70;;
67749;SDS011;54550;48.838;8.828;2023-04-25T04:38:44;11.15;;;7.55;;
67749;SDS011;54550;48.838;8.828;2023-04-25T04:41:10;11.80;;;6.40;;
67749;SDS011;54550;48.838;8.828;2023-04-25T04:43:35;10.00;;;7.40;;
67749;SDS011;54550;48.838;8.828;2023-04-25T04:46:01;8.73;;;6.40;;
67749;SDS011;54550;48.838;8.828;2023-04-25T04:48:28;9.00;;;5.38;;
67749;SDS011;54550;48.838;8.828;2023-04-25T04:50:57;6.63;;;5.18;;
67749;SDS011;54550;48.838;8.828;2023-04-25T04:53:23;7.47;;;6.03;;
67749;SDS011;54550;48.838;8.828;2023-04-25T04:55:48;17.07;;;4.87;;
67749;SDS011;54550;48.838;8.828;2023-04-25T04:58:14;6.63;;;5.40;;
67749;SDS011;54550;48.838;8.828;2023-04-25T05:00:40;7.30;;;5.20;;
67749;SDS011;54550;48.838;8.828;2023-04-25T05:03:05;8.30;;;5.37;;
67749;SDS011;54550;48.838;8.828;2023-04-25T05:05:31;7.00;;;4.87;;
67749;SDS011;54550;48.838;8.828;2023-04-25T05:07:57;9.73;;;6.33;;
67749;SDS011;54550;48.838;8.828;2023-04-25T05:10:22;5.30;;;4.80;;
67749;SDS011;54550;48.838;8.828;2023-04-25T05:12:48;6.23;;;5.13;;
67749;SDS011;54550;48.838;8.828;2023-04-25T05:15:13;8.40;;;5.30;;
67749;SDS011;54550;48.838;8.828;2023-04-25T05:17:39;10.13;;;5.90;;
67749;SDS011;54550;48.838;8.828;2023-04-25T05:20:05;6.23;;;4.57;;
67749;SDS011;54550;48.838;8.828;2023-04-25T05:22:33;12.88;;;8.30;;
67749;SDS011;54550;48.838;8.828;2023-04-25T05:24:58;13.80;;;9.13;;
67749;SDS011;54550;48.838;8.828;2023-04-25T05:27:24;8.90;;;6.40;;
67749;SDS011;54550;48.838;8.828;2023-04-25T05:29:50;8.03;;;7.03;;
67749;SDS011;54550;48.838;8.828;2023-04-25T05:32:16;5.83;;;4.93;;
67749;SDS011;54550;48.838;8.828;2023-04-25T05:34:41;6.70;;;5.10;;
67749;SDS011;54550;48.838;8.828;2023-04-25T05:37:07;5.20;;;4.40;;
67749;SDS011;54550;48.838;8.828;2023-04-25T05:39:32;7.20;;;5.80;;
67749;SDS011;54550;48.838;8.828;2023-04-25T05:41:58;9.77;;;5.50;;
67749;SDS011;54550;48.838;8.828;2023-04-25T05:44:23;11.53;;;6.10;;
67749;SDS011;54550;48.838;8.828;2023-04-25T05:46:49;6.72;;;5.72;;
67749;SDS011;54550;48.838;8.828;2023-04-25T05:49:15;7.03;;;5.33;;
67749;SDS011;54550;48.838;8.828;2023-04-25T05:51:41;15.27;;;5.40;;
67749;SDS011;54550;48.838;8.828;2023-04-25T05:54:06;12.20;;;5.80;;
67749;SDS011;54550;48.838;8.828;2023-04-25T05:56:32;8.17;;;6.40;;
67749;SDS011;54550;48.838;8.828;2023-04-25T05:58:57;11.40;;;5.63;;
67749;SDS011;54550;48.838;8.828;2023-04-25T06:01:23;7.97;;;5.13;;
67749;SDS011;54550;48.838;8.828;2023-04-25T06:03:49;5.97;;;4.83;;
67749;SDS011;54550;48.838;8.828;2023-04-25T06:06:16;6.78;;;5.05;;
67749;SDS011;54550;48.838;8.828;2023-04-25T06:08:41;5.17;;;4.07;;
67749;SDS011;54550;48.838;8.828;2023-04-25T06:11:07;6.70;;;4.67;;
67749;SDS011;54550;48.838;8.828;2023-04-25T06:13:33;4.37;;;3.97;;
67749;SDS011;54550;48.838;8.828;2023-04-25T06:15:58;4.30;;;3.90;;
67749;SDS011;54550;48.838;8.828;2023-04-25T06:18:24;5.07;;;4.13;;
67749;SDS011;54550;48.838;8.828;2023-04-25T06:20:49;5.70;;;4.07;;
67749;SDS011;54550;48.838;8.828;2023-04-25T06:23:15;8.23;;;6.00;;
67749;SDS011;54550;48.838;8.828;2023-04-25T06:25:40;15.67;;;8.47;;
67749;SDS011;54550;48.838;8.828;2023-04-25T06:28:06;11.40;;;7.40;;
67749;SDS011;54550;48.838;8.828;2023-04-25T06:30:31;10.40;;;5.30;;
67749;SDS011;54550;48.838;8.828;2023-04-25T06:32:57;9.93;;;5.00;;
67749;SDS011;54550;48.838;8.828;2023-04-25T06:35:23;6.37;;;5.00;;
67749;SDS011;54550;48.838;8.828;2023-04-25T06:37:48;5.93;;;4.13;;
67749;SDS011;54550;48.838;8.828;2023-04-25T06:40:14;9.20;;;4.53;;
67749;SDS011;54550;48.838;8.828;2023-04-25T06:42:39;8.17;;;5.03;;
67749;SDS011;54550;48.838;8.828;2023-04-25T06:45:05;9.47;;;4.20;;
67749;SDS011;54550;48.838;8.828;2023-04-25T06:47:31;5.65;;;4.70;;
67749;SDS011;54550;48.838;8.828;2023-04-25T06:49:57;8.43;;;4.97;;
67749;SDS011;54550;48.838;8.828;2023-04-25T06:52:22;7.37;;;5.20;;
67749;SDS011;54550;48.838;8.828;2023-04-25T06:54:48;6.20;;;5.17;;
67749;SDS011;54550;48.838;8.828;2023-04-25T06:57:13;5.30;;;4.80;;
67749;SDS011;54550;48.838;8.828;2023-04-25T06:59:39;6.83;;;5.53;;
67749;SDS011;54550;48.838;8.828;2023-04-25T07:02:05;11.63;;;6.00;;
67749;SDS011;54550;48.838;8.828;2023-04-25T07:04:31;5.73;;;5.23;;
67749;SDS011;54550;48.838;8.828;2023-04-25T07:06:56;9.97;;;5.57;;
67749;SDS011;54550;48.838;8.828;2023-04-25T07:09:22;9.87;;;5.50;;
67749;SDS011;54550;48.838;8.828;2023-04-25T07:11:47;9.13;;;5.50;;
67749;SDS011;54550;48.838;8.828;2023-04-25T07:14:13;5.77;;;5.20;;
67749;SDS011;54550;48.838;8.828;2023-04-25T07:16:38;13.43;;;5.00;;
67749;SDS011;54550;48.838;8.828;2023-04-25T07:19:04;5.80;;;3.93;;
67749;SDS011;54550;48.838;8.828;2023-04-25T07:21:30;6.73;;;5.53;;
67749;SDS011;54550;48.838;8.828;2023-04-25T07:23:56;5.17;;;4.60;;
67749;SDS011;54550;48.838;8.828;2023-04-25T07:26:22;5.50;;;4.90;;
67749;SDS011;54550;48.838;8.828;2023-04-25T07:28:47;5.90;;;4.87;;
67749;SDS011;54550;48.838;8.828;2023-04-25T07:31:15;7.88;;;5.50;;
67749;SDS011;54550;48.838;8.828;2023-04-25T07:33:43;8.07;;;5.10;;
67749;SDS011;54550;48.838;8.828;2023-04-25T07:36:09;9.25;;;5.20;;
67749;SDS011;54550;48.838;8.828;2023-04-25T07:38:35;8.53;;;4.70;;
67749;SDS011;54550;48.838;8.828;2023-04-25T07:41:01;11.10;;;5.47;;
67749;SDS011;54550;48.838;8.828;2023-04-25T07:43:26;6.30;;;4.50;;
67749;SDS011;54550;48.838;8.828;2023-04-25T07:45:52;9.30;;;4.60;;
67749;SDS011;54550;48.838;8.828;2023-04-25T07:48:18;5.47;;;4.87;;
67749;SDS011;54550;48.838;8.828;2023-04-25T07:50:43;7.70;;;4.20;;
67749;SDS011;54550;48.838;8.828;2023-04-25T07:53:09;6.03;;;5.07;;
67749;SDS011;54550;48.838;8.828;2023-04-25T07:55:35;6.60;;;4.23;;
67749;SDS011;54550;48.838;8.828;2023-04-25T07:58:01;10.23;;;4.15;;
67749;SDS011;54550;48.838;8.828;2023-04-25T08:00:28;4.90;;;4.43;;
67749;SDS011;54550;48.838;8.828;2023-04-25T08:02:54;5.68;;;5.05;;
67749;SDS011;54550;48.838;8.828;2023-04-25T08:05:19;5.00;;;4.30;;
67749;SDS011;54550;48.838;8.828;2023-04-25T08:07:45;14.77;;;4.90;;
67749;SDS011;54550;48.838;8.828;2023-04-25T08:10:11;5.73;;;5.13;;
67749;SDS011;54550;48.838;8.828;2023-04-25T08:12:36;5.60;;;4.80;;
67749;SDS011;54550;48.838;8.828;2023-04-25T08:15:02;7.10;;;5.53;;
67749;SDS011;54550;48.838;8.828;2023-04-25T08:17:28;5.72;;;5.18;;
67749;SDS011;54550;48.838;8.828;2023-04-25T08:19:53;8.17;;;5.60;;
67749;SDS011;54550;48.838;8.828;2023-04-25T08:22:20;7.18;;;6.05;;
67749;SDS011;54550;48.838;8.828;2023-04-25T08:24:45;6.30;;;5.70;;
67749;SDS011;54550;48.838;8.828;2023-04-25T08:27:11;10.10;;;6.93;;
67749;SDS011;54550;48.838;8.828;2023-04-25T08:29:37;7.63;;;6.93;;
67749;SDS011;54550;48.838;8.828;2023-04-25T08:32:02;8.80;;;6.90;;
67749;SDS011;54550;48.838;8.828;2023-04-25T08:34:28;8.10;;;6.70;;
67749;SDS011;54550;48.838;8.828;2023-04-25T08:36:53;14.80;;;8.57;;
67749;SDS011;54550;48.838;8.828;2023-04-25T08:39:19;7.20;;;6.40;;
67749;SDS011;54550;48.838;8.828;2023-04-25T08:41:45;6.28;;;5.47;;
67749;SDS011;54550;48.838;8.828;2023-04-25T08:44:11;7.37;;;5.50;;
67749;SDS011;54550;48.838;8.828;2023-04-25T08:46:40;5.70;;;4.73;;
67749;SDS011;54550;48.838;8.828;2023-04-25T08:49:06;4.65;;;4.25;;
67749;SDS011;54550;48.838;8.828;2023-04-25T08:51:34;4.82;;;4.40;;
67749;SDS011;54550;48.838;8.828;2023-04-25T08:54:10;7.30;;;4.55;;
67749;SDS011;54550;48.838;8.828;2023-04-25T08:56:46;4.20;;;3.83;;
67749;SDS011;54550;48.838;8.828;2023-04-25T08:59:13;5.07;;;4.57;;
67749;SDS011;54550;48.838;8.828;2023-04-25T09:01:38;4.57;;;4.17;;
67749;SDS011;54550;48.838;8.828;2023-04-25T09:04:04;6.03;;;5.43;;
67749;SDS011;54550;48.838;8.828;2023-04-25T09:06:30;4.53;;;4.13;;
67749;SDS011;54550;48.838;8.828;2023-04-25T09:09:03;9.88;;;3.00;;
67749;SDS011;54550;48.838;8.828;2023-04-25T09:11:30;4.00;;;2.35;;
67749;SDS011;54550;48.838;8.828;2023-04-25T09:14:12;4.40;;;3.07;;
67749;SDS011;54550;48.838;8.828;2023-04-25T09:19:34;2.42;;;2.10;;
67749;SDS011;54550;48.838;8.828;2023-04-25T09:22:01;5.28;;;4.80;;
67749;SDS011;54550;48.838;8.828;2023-04-25T09:24:32;3.10;;;2.80;;
67749;SDS011;54550;48.838;8.828;2023-04-25T09:27:03;3.25;;;2.22;;
67749;SDS011;54550;48.838;8.828;2023-04-25T09:29:43;2.35;;;2.13;;
67749;SDS011;54550;48.838;8.828;2023-04-25T09:34:40;3.08;;;1.65;;
67749;SDS011;54550;48.838;8.828;2023-04-25T09:37:10;2.95;;;2.60;;
67749;SDS011;54550;48.838;8.828;2023-04-25T09:39:37;4.00;;;2.42;;
67749;SDS011;54550;48.838;8.828;2023-04-25T09:42:05;5.40;;;2.00;;
67749;SDS011;54550;48.838;8.828;2023-04-25T09:44:31;9.73;;;2.67;;
67749;SDS011;54550;48.838;8.828;2023-04-25T09:46:57;2.73;;;1.83;;
67749;SDS011;54550;48.838;8.828;2023-04-25T09:49:24;2.67;;;1.85;;
67749;SDS011;54550;48.838;8.828;2023-04-25T09:51:57;2.00;;;1.60;;
67749;SDS011;54550;48.838;8.828;2023-04-25T09:54:24;2.17;;;1.90;;
67749;SDS011;54550;48.838;8.828;2023-04-25T09:56:51;1.42;;;1.33;;
67749;SDS011;54550;48.838;8.828;2023-04-25T09:59:19;1.42;;;1.33;;
67749;SDS011;54550;48.838;8.828;2023-04-25T10:01:48;2.03;;;1.92;;
67749;SDS011;54550;48.838;8.828;2023-04-25T10:04:16;2.08;;;1.52;;
67749;SDS011;54550;48.838;8.828;2023-04-25T10:06:47;1.88;;;1.73;;
67749;SDS011;54550;48.838;8.828;2023-04-25T10:09:15;3.25;;;2.53;;
67749;SDS011;54550;48.838;8.828;2023-04-25T10:11:42;2.25;;;2.05;;
67749;SDS011;54550;48.838;8.828;2023-04-25T10:14:09;2.45;;;2.25;;
67749;SDS011;54550;48.838;8.828;2023-04-25T10:16:36;2.15;;;2.00;;
67749;SDS011;54550;48.838;8.828;2023-04-25T10:19:02;1.17;;;1.08;;
67749;SDS011;54550;48.838;8.828;2023-04-25T10:21:28;1.40;;;1.30;;
67749;SDS011;54550;48.838;8.828;2023-04-25T10:23:59;4.35;;;2.22;;
67749;SDS011;54550;48.838;8.828;2023-04-25T10:26:25;2.05;;;1.83;;
67749;SDS011;54550;48.838;8.828;2023-04-25T10:28:57;2.63;;;2.43;;
67749;SDS011;54550;48.838;8.828;2023-04-25T10:31:25;4.72;;;2.63;;
67749;SDS011;54550;48.838;8.828;2023-04-25T10:33:51;3.40;;;3.10;;
67749;SDS011;54550;48.838;8.828;2023-04-25T10:36:18;6.28;;;3.35;;
67749;SDS011;54550;48.838;8.828;2023-04-25T10:38:48;3.17;;;2.97;;
67749;SDS011;54550;48.838;8.828;2023-04-25T10:41:18;3.08;;;2.50;;
67749;SDS011;54550;48.838;8.828;2023-04-25T10:43:48;4.45;;;3.40;;
67749;SDS011;54550;48.838;8.828;2023-04-25T10:46:22;3.30;;;3.00;;
67749;SDS011;54550;48.838;8.828;2023-04-25T10:48:50;5.15;;;3.25;;
67749;SDS011;54550;48.838;8.828;2023-04-25T10:51:23;5.32;;;3.50;;
67749;SDS011;54550;48.838;8.828;2023-04-25T10:56:22;2.25;;;2.05;;
67749;SDS011;54550;48.838;8.828;2023-04-25T10:58:49;2.88;;;2.65;;
67749;SDS011;54550;48.838;8.828;2023-04-25T11:01:19;2.40;;;2.20;;
67749;SDS011;54550;48.838;8.828;2023-04-25T11:03:46;3.70;;;1.83;;
67749;SDS011;54550;48.838;8.828;2023-04-25T11:06:21;4.45;;;1.85;;
67749;SDS011;54550;48.838;8.828;2023-04-25T11:08:49;1.92;;;1.50;;
67749;SDS011;54550;48.838;8.828;2023-04-25T11:11:16;5.75;;;3.17;;
67749;SDS011;54550;48.838;8.828;2023-04-25T11:13:43;3.90;;;2.70;;
67749;SDS011;54550;48.838;8.828;2023-04-25T11:16:08;6.40;;;3.38;;
67749;SDS011;54550;48.838;8.828;2023-04-25T11:18:34;6.77;;;4.67;;
67749;SDS011;54550;48.838;8.828;2023-04-25T11:21:00;9.60;;;5.40;;
67749;SDS011;54550;48.838;8.828;2023-04-25T11:23:27;10.50;;;4.85;;
67749;SDS011;54550;48.838;8.828;2023-04-25T11:25:55;5.93;;;5.10;;
67749;SDS011;54550;48.838;8.828;2023-04-25T11:28:21;5.97;;;4.80;;
67749;SDS011;54550;48.838;8.828;2023-04-25T11:30:48;11.07;;;7.63;;
67749;SDS011;54550;48.838;8.828;2023-04-25T11:33:15;6.78;;;5.70;;
67749;SDS011;54550;48.838;8.828;2023-04-25T11:35:40;6.83;;;5.80;;
67749;SDS011;54550;48.838;8.828;2023-04-25T11:38:06;9.23;;;5.50;;
67749;SDS011;54550;48.838;8.828;2023-04-25T11:40:32;11.23;;;6.50;;
67749;SDS011;54550;48.838;8.828;2023-04-25T11:42:59;7.93;;;5.83;;
67749;SDS011;54550;48.838;8.828;2023-04-25T11:45:26;12.80;;;6.15;;
67749;SDS011;54550;48.838;8.828;2023-04-25T11:47:51;8.07;;;5.57;;
67749;SDS011;54550;48.838;8.828;2023-04-25T11:50:17;5.85;;;4.63;;
67749;SDS011;54550;48.838;8.828;2023-04-25T11:55:15;8.18;;;4.50;;
67749;SDS011;54550;48.838;8.828;2023-04-25T11:57:43;5.68;;;4.30;;
67749;SDS011;54550;48.838;8.828;2023-04-25T12:00:13;5.30;;;3.35;;
67749;SDS011;54550;48.838;8.828;2023-04-25T12:02:42;6.97;;;3.40;;
67749;SDS011;54550;48.838;8.828;2023-04-25T12:05:10;5.73;;;3.80;;
67749;SDS011;54550;48.838;8.828;2023-04-25T12:07:37;4.05;;;3.70;;
67749;SDS011;54550;48.838;8.828;2023-04-25T12:10:07;3.27;;;2.97;;
67749;SDS011;54550;48.838;8.828;2023-04-25T12:12:34;5.57;;;4.30;;
67749;SDS011;54550;48.838;8.828;2023-04-25T12:15:22;5.13;;;3.70;;
67749;SDS011;54550;48.838;8.828;2023-04-25T12:17:50;4.53;;;3.37;;
67749;SDS011;54550;48.838;8.828;2023-04-25T12:20:18;7.13;;;4.37;;
67749;SDS011;54550;48.838;8.828;2023-04-25T12:22:45;10.03;;;3.10;;
67749;SDS011;54550;48.838;8.828;2023-04-25T12:28:19;2.50;;;2.30;;
67749;SDS011;54550;48.838;8.828;2023-04-25T12:31:05;5.80;;;3.10;;
67749;SDS011;54550;48.838;8.828;2023-04-25T12:33:35;2.67;;;2.47;;
67749;SDS011;54550;48.838;8.828;2023-04-25T12:36:02;4.83;;;3.10;;
67749;SDS011;54550;48.838;8.828;2023-04-25T12:38:35;7.07;;;3.43;;
67749;SDS011;54550;48.838;8.828;2023-04-25T12:41:02;7.13;;;3.30;;
67749;SDS011;54550;48.838;8.828;2023-04-25T12:43:27;4.73;;;4.30;;
67749;SDS011;54550;48.838;8.828;2023-04-25T12:45:53;4.83;;;4.10;;
67749;SDS011;54550;48.838;8.828;2023-04-25T12:48:20;4.83;;;4.37;;
67749;SDS011;54550;48.838;8.828;2023-04-25T12:50:46;6.60;;;4.80;;
67749;SDS011;54550;48.838;8.828;2023-04-25T12:53:14;7.13;;;4.50;;
67749;SDS011;54550;48.838;8.828;2023-04-25T12:55:40;5.67;;;4.23;;
67749;SDS011;54550;48.838;8.828;2023-04-25T12:58:06;4.93;;;3.70;;
67749;SDS011;54550;48.838;8.828;2023-04-25T13:00:32;4.90;;;4.10;;
67749;SDS011;54550;48.838;8.828;2023-04-25T13:02:58;6.23;;;4.33;;
67749;SDS011;54550;48.838;8.828;2023-04-25T13:05:24;7.30;;;4.30;;
67749;SDS011;54550;48.838;8.828;2023-04-25T13:07:50;4.30;;;3.57;;
67749;SDS011;54550;48.838;8.828;2023-04-25T13:10:16;14.40;;;4.53;;
67749;SDS011;54550;48.838;8.828;2023-04-25T13:12:42;5.93;;;3.33;;
67749;SDS011;54550;48.838;8.828;2023-04-25T13:15:08;7.93;;;4.30;;
67749;SDS011;54550;48.838;8.828;2023-04-25T13:17:36;4.60;;;3.50;;
67749;SDS011;54550;48.838;8.828;2023-04-25T13:20:03;12.43;;;4.10;;
67749;SDS011;54550;48.838;8.828;2023-04-25T13:22:33;8.30;;;4.10;;
67749;SDS011;54550;48.838;8.828;2023-04-25T13:25:01;7.63;;;4.57;;
67749;SDS011;54550;48.838;8.828;2023-04-25T13:27:27;6.00;;;3.73;;
67749;SDS011;54550;48.838;8.828;2023-04-25T13:29:53;5.60;;;3.47;;
67749;SDS011;54550;48.838;8.828;2023-04-25T13:32:19;15.60;;;4.03;;
67749;SDS011;54550;48.838;8.828;2023-04-25T13:34:45;7.80;;;3.60;;
67749;SDS011;54550;48.838;8.828;2023-04-25T13:37:10;6.67;;;5.30;;
67749;SDS011;54550;48.838;8.828;2023-04-25T13:39:36;7.80;;;4.40;;
67749;SDS011;54550;48.838;8.828;2023-04-25T13:42:02;11.73;;;4.97;;
67749;SDS011;54550;48.838;8.828;2023-04-25T13:44:28;6.20;;;4.10;;
67749;SDS011;54550;48.838;8.828;2023-04-25T13:46:53;6.67;;;3.67;;
67749;SDS011;54550;48.838;8.828;2023-04-25T13:49:19;11.83;;;4.37;;
67749;SDS011;54550;48.838;8.828;2023-04-25T13:51:44;5.17;;;4.27;;
67749;SDS011;54550;48.838;8.828;2023-04-25T13:54:10;9.10;;;4.30;;
67749;SDS011;54550;48.838;8.828;2023-04-25T13:56:35;6.80;;;4.13;;
67749;SDS011;54550;48.838;8.828;2023-04-25T13:59:01;6.27;;;4.30;;
67749;SDS011;54550;48.838;8.828;2023-04-25T14:01:27;4.03;;;3.00;;
67749;SDS011;54550;48.838;8.828;2023-04-25T14:03:53;5.10;;;3.10;;
67749;SDS011;54550;48.838;8.828;2023-04-25T14:06:18;3.60;;;2.70;;
67749;SDS011;54550;48.838;8.828;2023-04-25T14:08:48;6.30;;;3.70;;
67749;SDS011;54550;48.838;8.828;2023-04-25T14:11:14;3.67;;;2.90;;
67749;SDS011;54550;48.838;8.828;2023-04-25T14:13:40;3.10;;;2.80;;
67749;SDS011;54550;48.838;8.828;2023-04-25T14:16:05;3.40;;;2.93;;
67749;SDS011;54550;48.838;8.828;2023-04-25T14:18:31;5.30;;;2.90;;
67749;SDS011;54550;48.838;8.828;2023-04-25T14:20:57;5.10;;;2.73;;
67749;SDS011;54550;48.838;8.828;2023-04-25T14:23:22;3.50;;;2.50;;
67749;SDS011;54550;48.838;8.828;2023-04-25T14:25:48;3.00;;;2.77;;
67749;SDS011;54550;48.838;8.828;2023-04-25T14:28:13;5.77;;;3.10;;
67749;SDS011;54550;48.838;8.828;2023-04-25T14:30:39;11.03;;;2.67;;
67749;SDS011;54550;48.838;8.828;2023-04-25T14:33:05;3.70;;;2.10;;
67749;SDS011;54550;48.838;8.828;2023-04-25T14:35:31;8.83;;;2.87;;
67749;SDS011;54550;48.838;8.828;2023-04-25T14:37:56;3.47;;;2.30;;
67749;SDS011;54550;48.838;8.828;2023-04-25T14:40:22;2.63;;;2.10;;
67749;SDS011;54550;48.838;8.828;2023-04-25T14:42:48;3.23;;;2.23;;
67749;SDS011;54550;48.838;8.828;2023-04-25T14:45:15;3.53;;;2.40;;
67749;SDS011;54550;48.838;8.828;2023-04-25T14:47:40;4.80;;;2.80;;
67749;SDS011;54550;48.838;8.828;2023-04-25T14:50:06;4.90;;;1.93;;
67749;SDS011;54550;48.838;8.828;2023-04-25T14:52:33;3.93;;;3.30;;